Latest Weather Observations for St Kilda Harbour RMYS

IDV60801

Issued at 8:52 pm EDT Thursday 21 February 2019 (issued every 10 minutes, with the page automatically refreshed every 10 minutes)

About weather observations | Map of weather stations | Latest weather observations for VIC | Other Formats
Station Details ID: 086220 Name: ST KILDA HARBOUR - RMYS Lat: -37.86 Lon: 144.96 Height: 6.4 m
Data from the previous 72 hours. | See also: Recent months at St Kilda Harbour RMYS
Date/Time
EDT
Temp
°C
App
Temp
°C
Dew
Point
°C
Rel
Hum
%
Delta-T
°C
Wind Press
QNH
hPa
Press
MSL
hPa
Rain since
9am
mm
Dir  Spd
km/h
Gust
km/h
Spd
kts
Gust
kts
21/08:30pm - - - - - SSE 22 30 12 16 - - -
21/08:00pm - - - - - S 28 33 15 18 - - -
21/07:30pm - - - - - S 28 35 15 19 - - -
21/07:00pm - - - - - S 28 33 15 18 - - -
21/06:30pm - - - - - S 28 32 15 17 - - -
21/06:00pm - - - - - S 32 37 17 20 - - -
21/05:30pm - - - - - S 28 35 15 19 - - -
21/05:00pm - - - - - S 32 35 17 19 - - -
21/04:30pm - - - - - S 30 37 16 20 - - -
21/04:00pm - - - - - S 28 33 15 18 - - -
21/03:30pm - - - - - SSW 32 37 17 20 - - -
21/03:00pm - - - - - SSW 30 35 16 19 - - -
21/02:30pm - - - - - SSW 32 39 17 21 - - -
21/02:00pm - - - - - S 20 30 11 16 - - -
21/01:30pm - - - - - S 17 22 9 12 - - -
21/01:00pm - - - - - SSW 20 26 11 14 - - -
21/12:30pm - - - - - SSW 17 22 9 12 - - -
21/12:00pm - - - - - SSW 15 20 8 11 - - -
21/11:30am - - - - - SW 20 28 11 15 - - -
21/11:00am - - - - - SSW 22 30 12 16 - - -
21/10:30am - - - - - SSW 20 30 11 16 - - -
21/10:00am - - - - - SSW 24 32 13 17 - - -
21/09:30am - - - - - SSW 22 28 12 15 - - -
21/09:00am - - - - - SSW 26 33 14 18 - - -
21/08:30am - - - - - SSW 28 35 15 19 - - -
21/08:00am - - - - - SW 26 32 14 17 - - -
21/07:30am - - - - - WSW 24 30 13 16 - - -
21/07:00am - - - - - SW 19 24 10 13 - - -
21/06:30am - - - - - W 20 24 11 13 - - -
21/06:00am - - - - - WSW 26 32 14 17 - - -
21/05:30am - - - - - WSW 24 30 13 16 - - -
21/05:00am - - - - - W 22 26 12 14 - - -
21/04:30am - - - - - W 20 26 11 14 - - -
21/04:00am - - - - - W 20 24 11 13 - - -
21/03:30am - - - - - W 19 26 10 14 - - -
21/03:00am - - - - - WSW 24 30 13 16 - - -
21/02:30am - - - - - W 22 28 12 15 - - -
21/02:00am - - - - - SW 26 33 14 18 - - -
21/01:30am - - - - - SW 24 30 13 16 - - -
21/01:00am - - - - - SSW 24 28 13 15 - - -
21/12:30am - - - - - SSW 28 33 15 18 - - -
21/12:00am - - - - - SSW 35 41 19 22 - - -
 
Date/Time
EDT
Temp
°C
App
Temp
°C
Dew
Point
°C
Rel
Hum
%
Delta-T
°C
Wind Press
QNH
hPa
Press
MSL
hPa
Rain since
9am
mm
Dir  Spd
km/h
Gust
km/h
Spd
kts
Gust
kts
20/11:30pm - - - - - SW 33 44 18 24 - - -
20/11:19pm - - - - - SW 39 44 21 24 - - -
20/11:00pm - - - - - SSW 35 41 19 22 - - -
20/10:30pm - - - - - SSW 22 35 12 19 - - -
20/10:00pm - - - - - S 20 24 11 13 - - -
20/09:30pm - - - - - S 24 28 13 15 - - -
20/09:00pm - - - - - S 22 30 12 16 - - -
20/08:30pm - - - - - S 24 30 13 16 - - -
20/08:00pm - - - - - SSE 20 24 11 13 - - -
20/07:30pm - - - - - SSE 19 24 10 13 - - -
20/07:00pm - - - - - S 24 28 13 15 - - -
20/06:30pm - - - - - S 24 28 13 15 - - -
20/06:00pm - - - - - S 28 33 15 18 - - -
20/05:30pm - - - - - S 19 28 10 15 - - -
20/05:00pm - - - - - SSE 17 20 9 11 - - -
20/04:30pm - - - - - S 15 20 8 11 - - -
20/04:00pm - - - - - WSW 6 15 3 8 - - -
20/03:30pm - - - - - SE 6 7 3 4 - - -
20/03:00pm - - - - - SSE 6 7 3 4 - - -
20/02:30pm - - - - - SSE 11 17 6 9 - - -
20/02:00pm - - - - - S 11 17 6 9 - - -
20/01:30pm - - - - - SSW 15 20 8 11 - - -
20/01:00pm - - - - - SSW 17 20 9 11 - - -
20/12:30pm - - - - - SSW 17 24 9 13 - - -
20/12:00pm - - - - - SW 20 35 11 19 - - -
20/11:30am - - - - - WSW 24 30 13 16 - - -
20/11:00am - - - - - SW 17 24 9 13 - - -
20/10:30am - - - - - WSW 19 24 10 13 - - -
20/10:00am - - - - - WSW 17 24 9 13 - - -
20/09:30am - - - - - W 15 20 8 11 - - -
20/09:00am - - - - - WNW 13 19 7 10 - - -
20/08:30am - - - - - WNW 13 19 7 10 - - -
20/08:00am - - - - - WNW 15 20 8 11 - - -
20/07:30am - - - - - NW 13 19 7 10 - - -
20/07:00am - - - - - NW 9 19 5 10 - - -
20/06:30am - - - - - W 17 22 9 12 - - -
20/06:00am - - - - - NNW 11 17 6 9 - - -
20/05:30am - - - - - W 19 24 10 13 - - -
20/05:00am - - - - - W 19 22 10 12 - - -
20/04:30am - - - - - W 22 26 12 14 - - -
20/04:00am - - - - - W 26 28 14 15 - - -
20/03:30am - - - - - W 22 24 12 13 - - -
20/03:00am - - - - - WSW 22 28 12 15 - - -
20/02:30am - - - - - WSW 20 24 11 13 - - -
20/02:00am - - - - - W 24 28 13 15 - - -
20/01:30am - - - - - S 11 20 6 11 - - -
20/01:00am - - - - - ESE 7 9 4 5 - - -
20/12:30am - - - - - ESE 11 17 6 9 - - -
20/12:00am - - - - - ESE 9 13 5 7 - - -
 
Date/Time
EDT
Temp
°C
App
Temp
°C
Dew
Point
°C
Rel
Hum
%
Delta-T
°C
Wind Press
QNH
hPa
Press
MSL
hPa
Rain since
9am
mm
Dir  Spd
km/h
Gust
km/h
Spd
kts
Gust
kts
19/11:30pm - - - - - ESE 11 17 6 9 - - -
19/11:00pm - - - - - SSE 13 24 7 13 - - -
19/10:30pm - - - - - SE 15 20 8 11 - - -
19/10:00pm - - - - - SSE 22 28 12 15 - - -
19/09:30pm - - - - - S 24 32 13 17 - - -
19/09:00pm - - - - - S 24 32 13 17 - - -
19/08:30pm - - - - - S 26 32 14 17 - - -
19/08:00pm - - - - - S 26 35 14 19 - - -
19/07:30pm - - - - - S 28 33 15 18 - - -
19/07:00pm - - - - - S 28 33 15 18 - - -
19/06:30pm - - - - - S 26 33 14 18 - - -
19/06:00pm - - - - - S 26 35 14 19 - - -
19/05:30pm - - - - - S 30 37 16 20 - - -
19/05:00pm - - - - - S 28 35 15 19 - - -
19/04:30pm - - - - - S 28 35 15 19 - - -
19/04:00pm - - - - - S 32 37 17 20 - - -
19/03:30pm - - - - - S 26 33 14 18 - - -
19/03:00pm - - - - - S 30 35 16 19 - - -
19/02:30pm - - - - - S 26 32 14 17 - - -
19/02:00pm - - - - - SSE 13 20 7 11 - - -
19/01:30pm - - - - - S 11 19 6 10 - - -
19/01:00pm - - - - - S 9 13 5 7 - - -
19/12:30pm - - - - - SSW 17 22 9 12 - - -
19/12:00pm - - - - - SW 19 26 10 14 - - -
19/11:30am - - - - - SSW 15 22 8 12 - - -
19/11:00am - - - - - SW 17 22 9 12 - - -
19/10:30am - - - - - SW 13 20 7 11 - - -
19/10:00am - - - - - SW 26 33 14 18 - - -
19/09:30am - - - - - WSW 32 37 17 20 - - -
19/09:00am - - - - - WSW 26 32 14 17 - - -
19/08:30am - - - - - W 20 26 11 14 - - -
19/08:00am - - - - - WSW 26 35 14 19 - - -
19/07:30am - - - - - WSW 28 35 15 19 - - -
19/07:00am - - - - - WSW 35 41 19 22 - - -
19/06:30am - - - - - W 26 37 14 20 - - -
19/06:00am - - - - - WSW 26 33 14 18 - - -
19/05:30am - - - - - WSW 32 39 17 21 - - -
19/05:00am - - - - - WSW 35 41 19 22 - - -
19/04:30am - - - - - WSW 30 39 16 21 - - -
19/04:00am - - - - - WSW 32 37 17 20 - - -
19/03:30am - - - - - W 30 35 16 19 - - -
19/03:00am - - - - - WSW 32 39 17 21 - - -
19/02:30am - - - - - WSW 30 37 16 20 - - -
19/02:00am - - - - - WSW 32 37 17 20 - - -
19/01:30am - - - - - WSW 33 41 18 22 - - -
19/01:00am - - - - - WSW 33 39 18 21 - - -
19/12:30am - - - - - WSW 32 37 17 20 - - -
19/12:00am - - - - - WSW 32 39 17 21 - - -
 
Date/Time
EDT
Temp
°C
App
Temp
°C
Dew
Point
°C
Rel
Hum
%
Delta-T
°C
Wind Press
QNH
hPa
Press
MSL
hPa
Rain since
9am
mm
Dir  Spd
km/h
Gust
km/h
Spd
kts
Gust
kts
18/11:30pm - - - - - SW 28 37 15 20 - - -
18/11:00pm - - - - - SW 30 39 16 21 - - -
18/10:30pm - - - - - SW 28 37 15 20 - - -
18/10:00pm - - - - - SW 30 37 16 20 - - -
18/09:30pm - - - - - SSW 30 39 16 21 - - -
18/09:00pm - - - - - S 33 39 18 21 - - -

Other formats

Comma delimited format used in spreadsheet applications
http://www.bom.gov.au/fwo/IDV60801/IDV60801.95864.axf

JavaScript Object Notation format (JSON) in row-major order
http://www.bom.gov.au/fwo/IDV60801/IDV60801.95864.json

Data quality

Most of these data are generated automatically and are frequently updated. Quality checks on data are not normally performed. It is possible for incorrect values to appear. Refer to information at About Latest Weather Observations and please check the disclaimer before using these data.